Time;durP1;ratioP1;P1;durP2;ratioP2;P2;SDS_P1;SDS_P2;PMS_P1;PMS_P2;Temp;Humidity;BMP_temperature;BMP_pressure;BME280_temperature;BME280_humidity;BME280_pressure;Samples;Min_cycle;Max_cycle;Signal;HPM_P1;HPM_P2
2023/06/24 00:00:37;;;;;;;5.43;3.60;;;21.30;85.50;;;;;;5036871;28;20025;-85
2023/06/24 00:03:02;;;;;;;4.95;3.30;;;21.30;85.60;;;;;;5034273;28;20030;-85
2023/06/24 00:05:28;;;;;;;5.93;3.30;;;21.30;85.50;;;;;;5007617;28;20091;-86
2023/06/24 00:07:56;;;;;;;5.32;3.33;;;21.20;85.60;;;;;;5016880;28;20121;-83
2023/06/24 00:10:22;;;;;;;5.10;3.30;;;21.20;85.80;;;;;;5033432;28;20159;-84
2023/06/24 00:12:48;;;;;;;5.32;3.38;;;21.20;85.90;;;;;;5015018;28;20112;-83
2023/06/24 00:15:13;;;;;;;5.50;3.38;;;21.10;85.90;;;;;;5017038;28;20029;-84
2023/06/24 00:17:40;;;;;;;5.70;3.40;;;21.20;86.00;;;;;;4997274;28;20026;-86
2023/06/24 00:20:08;;;;;;;5.07;3.30;;;21.20;86.10;;;;;;4997401;28;20025;-86
2023/06/24 00:22:34;;;;;;;5.57;3.20;;;21.10;86.10;;;;;;5025741;28;20563;-83
2023/06/24 00:25:00;;;;;;;5.00;3.00;;;21.10;86.10;;;;;;5022120;28;20042;-83
2023/06/24 00:27:26;;;;;;;5.95;3.42;;;21.10;86.10;;;;;;5027712;28;20474;-83
2023/06/24 00:29:51;;;;;;;5.03;3.17;;;21.10;86.10;;;;;;5016819;28;20033;-83
2023/06/24 00:32:17;;;;;;;5.00;3.45;;;21.10;86.10;;;;;;5005390;28;20468;-84
2023/06/24 00:34:43;;;;;;;4.60;3.20;;;21.10;86.10;;;;;;5026459;28;20087;-82
2023/06/24 00:37:09;;;;;;;4.53;2.92;;;21.10;86.10;;;;;;5036098;28;20457;-83
2023/06/24 00:39:35;;;;;;;4.95;3.25;;;21.10;86.10;;;;;;5053051;28;20032;-83
2023/06/24 00:42:00;;;;;;;5.25;3.35;;;21.10;86.10;;;;;;5045043;28;20021;-86
2023/06/24 00:44:26;;;;;;;4.43;3.10;;;21.10;86.00;;;;;;5002728;28;20018;-83
2023/06/24 00:46:51;;;;;;;5.63;3.78;;;21.10;86.00;;;;;;5013028;28;20672;-83
2023/06/24 00:49:17;;;;;;;5.95;3.70;;;21.10;86.50;;;;;;4996814;28;20018;-82
2023/06/24 00:51:47;;;;;;;5.10;3.28;;;21.10;86.00;;;;;;5004460;28;20063;-83
2023/06/24 00:54:13;;;;;;;4.75;3.22;;;21.10;86.00;;;;;;5015240;28;20680;-83
2023/06/24 00:56:38;;;;;;;5.22;3.35;;;21.10;86.10;;;;;;5034016;28;20030;-83
2023/06/24 00:59:06;;;;;;;4.90;3.20;;;21.10;86.20;;;;;;5016268;28;20026;-82
2023/06/24 01:01:33;;;;;;;4.75;3.15;;;21.10;86.20;;;;;;5015788;28;20053;-84
2023/06/24 01:04:00;;;;;;;5.25;3.45;;;21.10;86.10;;;;;;5006008;28;20080;-82
2023/06/24 01:06:29;;;;;;;5.72;3.10;;;21.10;86.00;;;;;;4996294;28;20040;-84
2023/06/24 01:08:59;;;;;;;5.10;3.30;;;21.20;86.00;;;;;;5020545;28;20031;-85
2023/06/24 01:11:29;;;;;;;4.68;3.00;;;21.20;85.90;;;;;;5032986;28;20021;-83
2023/06/24 01:13:55;;;;;;;5.38;3.38;;;21.20;85.80;;;;;;5010418;28;20034;-83
2023/06/24 01:16:37;;;;;;;4.85;3.08;;;21.20;85.70;;;;;;5013605;28;20073;-83
2023/06/24 01:19:36;;;;;;;5.30;3.40;;;21.20;85.60;;;;;;5018530;28;20088;-82
2023/06/24 01:22:40;;;;;;;5.07;3.35;;;21.20;85.60;;;;;;5033077;28;20029;-83
2023/06/24 01:25:36;;;;;;;4.75;3.08;;;21.20;85.60;;;;;;4979814;28;20417;-86
2023/06/24 01:28:30;;;;;;;5.65;3.13;;;21.20;85.50;;;;;;5017110;28;20033;-84
2023/06/24 01:31:30;;;;;;;5.75;3.38;;;21.20;85.60;;;;;;5016765;28;20022;-84
2023/06/24 01:34:23;;;;;;;4.55;2.95;;;21.20;85.60;;;;;;5023657;28;20026;-85
2023/06/24 01:37:14;;;;;;;4.85;3.15;;;21.20;85.70;;;;;;4995427;28;20030;-85
2023/06/24 01:40:15;;;;;;;5.15;3.38;;;21.20;85.90;;;;;;5032782;28;20034;-85
2023/06/24 01:42:46;;;;;;;5.55;3.33;;;21.10;85.90;;;;;;4993178;28;20037;-85
2023/06/24 01:45:22;;;;;;;4.90;3.20;;;21.10;86.00;;;;;;5015219;28;20029;-84
2023/06/24 01:47:54;;;;;;;4.47;2.88;;;21.10;86.10;;;;;;5032601;28;20120;-85
2023/06/24 01:50:22;;;;;;;;;;;21.10;86.10;;;;;;5027367;28;20375;-86
2023/06/24 01:52:50;;;;;;;5.57;3.20;;;21.10;86.10;;;;;;5001857;28;19914;-85
2023/06/24 01:55:20;;;;;;;5.05;3.20;;;21.10;86.10;;;;;;5030690;28;20057;-85
2023/06/24 01:57:47;;;;;;;6.83;3.40;;;21.10;86.20;;;;;;5017787;28;20579;-84
2023/06/24 02:00:14;;;;;;;5.32;3.33;;;21.00;86.20;;;;;;5011661;28;20121;-84
2023/06/24 02:02:39;;;;;;;5.70;3.28;;;21.10;86.20;;;;;;5027077;28;20498;-84
2023/06/24 02:05:06;;;;;;;5.10;3.25;;;21.10;86.20;;;;;;5017937;28;20029;-85
2023/06/24 02:07:33;;;;;;;4.65;3.05;;;21.00;86.10;;;;;;5032331;28;20064;-85
2023/06/24 02:10:00;;;;;;;4.30;2.95;;;21.10;86.20;;;;;;4995730;28;20037;-85
2023/06/24 02:12:27;;;;;;;4.90;3.15;;;21.10;86.20;;;;;;5012907;28;20030;-85
2023/06/24 02:14:54;;;;;;;4.95;3.00;;;21.00;86.00;;;;;;5022842;28;20036;-85
2023/06/24 02:17:24;;;;;;;4.68;2.80;;;21.00;86.00;;;;;;5014608;28;20390;-84
2023/06/24 02:19:50;;;;;;;4.97;3.20;;;21.00;86.10;;;;;;5014696;28;20502;-84
2023/06/24 02:22:17;;;;;;;4.88;2.80;;;21.00;86.10;;;;;;5021616;28;20036;-85
2023/06/24 02:24:43;;;;;;;4.60;2.97;;;21.00;86.10;;;;;;5013455;28;20036;-84
2023/06/24 02:27:11;;;;;;;5.22;3.13;;;21.00;86.10;;;;;;5042177;28;20072;-84
2023/06/24 02:29:38;;;;;;;5.00;3.20;;;21.00;86.20;;;;;;5036874;28;20025;-83
2023/06/24 02:32:05;;;;;;;4.72;3.00;;;21.10;86.20;;;;;;5027733;28;20026;-83
2023/06/24 02:34:30;;;;;;;4.95;3.20;;;21.10;86.10;;;;;;5014886;28;20026;-84
2023/06/24 02:36:56;;;;;;;5.25;3.00;;;21.10;86.00;;;;;;5013141;28;20389;-83
2023/06/24 02:39:22;;;;;;;4.60;2.90;;;21.10;85.90;;;;;;5015630;28;20045;-83
2023/06/24 02:41:49;;;;;;;4.32;3.00;;;21.10;85.80;;;;;;5005732;28;20482;-84
2023/06/24 02:44:15;;;;;;;4.63;3.20;;;21.10;85.70;;;;;;5015339;28;20037;-84
2023/06/24 02:46:44;;;;;;;4.40;2.85;;;21.20;85.70;;;;;;5015599;28;20054;-83
2023/06/24 02:49:13;;;;;;;4.97;2.95;;;21.10;85.60;;;;;;4998918;28;20546;-83
2023/06/24 02:51:39;;;;;;;5.20;3.20;;;21.20;85.50;;;;;;5023954;28;20033;-84
2023/06/24 02:54:05;;;;;;;5.25;3.25;;;21.20;85.50;;;;;;5027184;28;20079;-83
2023/06/24 02:56:32;;;;;;;4.72;3.05;;;21.20;85.50;;;;;;5052197;28;20029;-83
2023/06/24 02:58:57;;;;;;;5.25;2.85;;;21.10;85.50;;;;;;5031778;28;20026;-84
2023/06/24 03:01:25;;;;;;;4.93;3.03;;;21.10;85.50;;;;;;5021904;28;20481;-83
2023/06/24 03:03:54;;;;;;;4.75;2.90;;;21.10;85.60;;;;;;5033807;28;20033;-83
2023/06/24 03:06:21;;;;;;;4.75;3.03;;;21.10;85.80;;;;;;5018121;28;20034;-82
2023/06/24 03:08:48;;;;;;;5.20;3.38;;;21.00;85.80;;;;;;5006834;28;20022;-84
2023/06/24 03:11:16;;;;;;;5.65;3.40;;;21.10;85.90;;;;;;5002046;28;20026;-83
2023/06/24 03:13:45;;;;;;;4.80;3.08;;;21.00;85.90;;;;;;5008592;28;20179;-83
2023/06/24 03:16:12;;;;;;;4.72;3.00;;;21.00;86.00;;;;;;5014747;28;20036;-81
2023/06/24 03:18:41;;;;;;;5.05;3.20;;;21.00;86.00;;;;;;4998298;28;20026;-83
2023/06/24 03:21:08;;;;;;;4.93;3.00;;;21.00;86.00;;;;;;5001353;28;20478;-83
2023/06/24 03:23:34;;;;;;;4.78;2.85;;;21.00;86.10;;;;;;5016934;28;20029;-83
2023/06/24 03:25:59;;;;;;;5.15;3.10;;;21.00;86.60;;;;;;5035834;28;20525;-83
2023/06/24 03:28:26;;;;;;;5.30;3.25;;;21.00;86.10;;;;;;5030162;28;20104;-83
2023/06/24 03:30:51;;;;;;;4.90;3.08;;;21.00;86.10;;;;;;5054007;28;20381;-83
2023/06/24 03:33:17;;;;;;;4.90;3.20;;;21.00;86.10;;;;;;5030911;28;20029;-84
2023/06/24 03:35:43;;;;;;;4.63;2.95;;;21.00;86.10;;;;;;5011360;28;20025;-84
2023/06/24 03:38:08;;;;;;;5.60;3.30;;;21.00;86.10;;;;;;5037589;28;20025;-84
2023/06/24 03:40:34;;;;;;;6.30;3.55;;;21.00;86.00;;;;;;5037379;28;20094;-83
2023/06/24 03:42:59;;;;;;;5.40;3.10;;;21.00;86.00;;;;;;5020606;28;20025;-83
2023/06/24 03:45:25;;;;;;;5.30;3.15;;;21.00;86.00;;;;;;5017621;28;20580;-83
2023/06/24 03:47:50;;;;;;;5.32;3.17;;;21.00;85.90;;;;;;5016259;28;20064;-83
2023/06/24 03:50:16;;;;;;;5.15;3.33;;;21.00;85.90;;;;;;5004054;28;20072;-83
2023/06/24 03:52:43;;;;;;;4.72;3.20;;;21.00;85.90;;;;;;5013462;28;20037;-83
2023/06/24 03:55:09;;;;;;;4.90;3.10;;;21.00;85.90;;;;;;5014310;28;20092;-83
2023/06/24 03:57:35;;;;;;;4.70;3.10;;;21.00;86.00;;;;;;4997672;28;20458;-83
2023/06/24 04:00:00;;;;;;;5.18;3.42;;;21.00;86.00;;;;;;5007335;28;20029;-84
2023/06/24 04:02:26;;;;;;;4.85;3.10;;;21.00;85.90;;;;;;5017116;28;20037;-84
2023/06/24 04:04:52;;;;;;;4.90;3.28;;;21.00;85.80;;;;;;5010695;28;20030;-83
2023/06/24 04:07:27;;;;;;;4.90;3.10;;;21.10;85.80;;;;;;5017349;28;20031;-83
2023/06/24 04:09:54;;;;;;;5.53;3.53;;;21.10;85.60;;;;;;5006523;28;20129;-83
2023/06/24 04:12:20;;;;;;;4.60;3.05;;;21.10;85.50;;;;;;5012956;28;20032;-83
2023/06/24 04:14:45;;;;;;;5.53;3.25;;;21.10;85.40;;;;;;5016981;28;20116;-82
2023/06/24 04:17:11;;;;;;;5.15;3.15;;;21.10;85.40;;;;;;5017157;28;20021;-83
2023/06/24 04:19:36;;;;;;;4.93;3.15;;;21.10;85.30;;;;;;5034907;28;20105;-83
2023/06/24 04:22:02;;;;;;;5.50;3.28;;;21.10;85.30;;;;;;5016728;28;20040;-83
2023/06/24 04:24:27;;;;;;;4.65;2.92;;;21.10;85.30;;;;;;5024828;28;20528;-82
2023/06/24 04:26:53;;;;;;;5.57;3.15;;;21.10;85.30;;;;;;5037930;28;20091;-83
2023/06/24 04:29:18;;;;;;;6.13;3.03;;;21.10;85.30;;;;;;5028415;28;20511;-84
2023/06/24 04:31:43;;;;;;;4.97;3.05;;;21.10;85.40;;;;;;5021328;28;20029;-83
2023/06/24 04:34:09;;;;;;;4.95;3.20;;;21.10;85.50;;;;;;5022899;28;20032;-83
2023/06/24 04:36:35;;;;;;;5.05;3.33;;;21.10;85.60;;;;;;5030543;28;20440;-82
2023/06/24 04:39:00;;;;;;;5.03;3.13;;;21.10;85.70;;;;;;5026202;28;20025;-85
2023/06/24 04:41:26;;;;;;;5.03;3.25;;;21.00;85.70;;;;;;5026704;28;20057;-85
2023/06/24 04:43:51;;;;;;;4.65;2.97;;;21.10;85.70;;;;;;5023402;28;20049;-85
2023/06/24 04:46:17;;;;;;;4.95;3.10;;;21.00;86.20;;;;;;5032643;28;20028;-85
2023/06/24 04:48:42;;;;;;;5.68;3.70;;;21.00;85.80;;;;;;5016424;28;20481;-85
2023/06/24 04:51:08;;;;;;;5.68;3.25;;;21.00;85.80;;;;;;5017831;28;20029;-85
2023/06/24 04:53:34;;;;;;;5.25;3.35;;;21.00;85.80;;;;;;5029097;28;20132;-84
2023/06/24 04:55:59;;;;;;;5.10;3.10;;;21.00;85.80;;;;;;5033756;28;20064;-85
2023/06/24 04:58:24;;;;;;;4.97;3.20;;;21.00;85.80;;;;;;5014218;28;20386;-87
2023/06/24 05:00:50;;;;;;;5.05;3.25;;;21.00;85.80;;;;;;5013064;28;20126;-85
2023/06/24 05:03:15;;;;;;;4.57;2.90;;;21.00;85.80;;;;;;5018290;28;20026;-85
2023/06/24 05:05:41;;;;;;;5.15;3.10;;;21.00;85.80;;;;;;5015805;28;20045;-85
2023/06/24 05:08:06;;;;;;;5.20;3.47;;;21.00;85.80;;;;;;5033690;28;20057;-88
2023/06/24 05:10:32;;;;;;;4.80;3.10;;;21.00;85.80;;;;;;5036443;28;20040;-86
2023/06/24 08:03:05;;;;;;;5.03;3.40;;;21.50;84.00;;;;;;4972882;28;20046;-84
2023/06/24 08:13:07;;;;;;;;;;;;;;;;;;;;;
2023/06/24 08:15:33;;;;;;;4.80;3.30;;;21.40;83.90;;;;;;4957543;28;20041;-86
2023/06/24 08:17:58;;;;;;;5.38;3.60;;;21.60;84.00;;;;;;4958129;28;20194;-88
2023/06/24 08:20:25;;;;;;;5.13;3.58;;;21.50;83.90;;;;;;4958329;28;20026;-86
2023/06/24 08:22:51;;;;;;;5.53;3.30;;;21.60;83.90;;;;;;4968891;28;20117;-84
2023/06/24 08:25:16;;;;;;;4.97;3.30;;;21.60;83.80;;;;;;4958138;28;20034;-85
2023/06/24 08:27:46;;;;;;;5.88;3.53;;;21.60;83.60;;;;;;4957965;28;20082;-84
2023/06/24 08:30:12;;;;;;;5.35;3.40;;;21.60;83.50;;;;;;4958155;28;20027;-85
2023/06/24 08:32:38;;;;;;;4.97;3.30;;;21.70;83.40;;;;;;4966865;28;20030;-85
2023/06/24 08:35:04;;;;;;;5.30;3.45;;;21.70;83.30;;;;;;4959327;28;20051;-86
2023/06/24 08:37:29;;;;;;;5.38;3.40;;;21.70;83.20;;;;;;4958017;28;20022;-84
2023/06/24 08:39:55;;;;;;;6.18;3.65;;;21.70;83.10;;;;;;4958329;28;20556;-85
2023/06/24 08:42:20;;;;;;;5.30;3.50;;;21.80;83.00;;;;;;4980644;28;20034;-83
2023/06/24 08:44:46;;;;;;;5.25;3.67;;;21.80;83.00;;;;;;4965888;28;20135;-85
2023/06/24 08:47:14;;;;;;;5.82;3.38;;;21.80;82.90;;;;;;4957686;28;20348;-82
2023/06/24 08:49:47;;;;;;;6.13;3.30;;;21.90;82.90;;;;;;4975240;28;20023;-84
2023/06/24 08:52:15;;;;;;;5.40;3.70;;;21.80;82.80;;;;;;4963888;28;20026;-83
2023/06/24 08:54:44;;;;;;;17.48;4.35;;;21.80;82.70;;;;;;4963715;28;20023;-83
2023/06/24 08:57:14;;;;;;;10.40;4.72;;;21.80;81.90;;;;;;4957906;28;20052;-85
2023/06/24 08:59:40;;;;;;;11.57;5.07;;;21.70;81.80;;;;;;4975126;28;20018;-84
2023/06/24 09:02:06;;;;;;;13.45;4.60;;;21.70;81.60;;;;;;4959070;28;20114;-85
2023/06/24 09:04:32;;;;;;;10.65;4.63;;;21.70;82.00;;;;;;4975001;28;20054;-84
2023/06/24 09:06:58;;;;;;;10.52;4.82;;;21.70;81.90;;;;;;4974702;28;20106;-84
2023/06/24 09:09:24;;;;;;;11.25;4.85;;;21.70;82.00;;;;;;4974633;28;20278;-85
2023/06/24 09:11:54;;;;;;;13.68;5.20;;;21.70;82.00;;;;;;4956522;28;20419;-85
2023/06/24 09:14:20;;;;;;;10.50;4.70;;;21.70;81.90;;;;;;4949568;28;20121;-86
2023/06/24 09:17:03;;;;;;;11.93;4.90;;;21.70;82.00;;;;;;4957195;28;20122;-85
2023/06/24 09:19:29;;;;;;;10.35;4.95;;;21.80;82.10;;;;;;4957315;28;20046;-85
2023/06/24 09:22:08;;;;;;;10.45;4.68;;;21.80;82.20;;;;;;4962095;28;20399;-85
2023/06/24 09:24:35;;;;;;;7.03;4.50;;;21.80;82.20;;;;;;4970782;28;20404;-85
2023/06/24 09:27:02;;;;;;;9.65;4.90;;;21.80;82.50;;;;;;4959413;28;20027;-85
2023/06/24 09:29:32;;;;;;;9.73;4.63;;;21.90;82.30;;;;;;4974598;28;20034;-85
2023/06/24 09:31:59;;;;;;;9.30;4.97;;;21.80;82.30;;;;;;4961320;28;20034;-85
2023/06/24 09:34:26;;;;;;;10.65;4.80;;;21.90;82.50;;;;;;4957107;28;20089;-85
2023/06/24 09:36:53;;;;;;;9.55;4.72;;;21.90;82.80;;;;;;4957241;28;20054;-84
2023/06/24 09:39:29;;;;;;;9.10;4.75;;;21.90;82.30;;;;;;4956937;28;20027;-85
2023/06/24 09:41:55;;;;;;;10.75;4.75;;;21.90;82.30;;;;;;4957568;28;20027;-86
2023/06/24 09:44:21;;;;;;;8.50;4.70;;;21.90;82.30;;;;;;4964114;28;20015;-86
2023/06/24 09:46:47;;;;;;;8.15;4.60;;;21.90;82.20;;;;;;4955509;28;20033;-84
2023/06/24 09:49:13;;;;;;;7.00;4.35;;;21.90;82.30;;;;;;4972761;28;20031;-84
2023/06/24 09:51:40;;;;;;;8.68;4.57;;;21.90;82.30;;;;;;4978273;28;20041;-84
2023/06/24 09:54:06;;;;;;;8.93;4.85;;;22.00;82.30;;;;;;4984845;28;20084;-84
2023/06/24 09:56:36;;;;;;;10.02;5.10;;;22.00;82.10;;;;;;4976392;28;20077;-85
2023/06/24 09:59:05;;;;;;;9.80;4.80;;;22.00;82.00;;;;;;4975773;28;20026;-84
2023/06/24 10:01:32;;;;;;;8.15;4.85;;;22.00;81.90;;;;;;4972738;28;20015;-85
2023/06/24 10:03:58;;;;;;;7.95;4.78;;;22.00;81.90;;;;;;4965030;28;20049;-86
2023/06/24 10:06:25;;;;;;;8.73;4.65;;;22.10;81.80;;;;;;4973329;28;20457;-85
2023/06/24 10:08:52;;;;;;;7.15;4.72;;;22.10;81.80;;;;;;4956482;28;20031;-86
2023/06/24 10:11:17;;;;;;;9.25;4.93;;;22.10;81.80;;;;;;4957695;28;20411;-86
2023/06/24 10:13:43;;;;;;;7.35;4.50;;;22.10;81.80;;;;;;4964792;28;20125;-85
2023/06/24 10:16:09;;;;;;;9.25;4.93;;;22.10;81.70;;;;;;4956280;28;20035;-85
2023/06/24 10:18:36;;;;;;;8.55;4.68;;;22.10;81.60;;;;;;4956017;28;20030;-86
2023/06/24 10:21:06;;;;;;;11.32;5.32;;;22.20;81.50;;;;;;4956357;28;20023;-88
2023/06/24 10:23:47;;;;;;;8.02;5.15;;;22.10;81.60;;;;;;4983401;28;20027;-86
2023/06/24 10:26:30;;;;;;;9.48;4.93;;;22.10;81.90;;;;;;4956064;28;20033;-85
2023/06/24 10:29:05;;;;;;;8.57;4.90;;;22.10;81.80;;;;;;4956194;28;20031;-85
2023/06/24 10:31:39;;;;;;;9.30;5.00;;;22.10;81.90;;;;;;4956992;28;20060;-85
2023/06/24 10:34:26;;;;;;;7.07;4.55;;;22.00;82.50;;;;;;4956309;28;20027;-86
2023/06/24 10:37:01;;;;;;;8.25;4.70;;;22.00;82.30;;;;;;4973105;28;20023;-86
2023/06/24 10:39:48;;;;;;;7.05;4.47;;;22.00;82.40;;;;;;4972301;28;20454;-86
2023/06/24 10:42:42;;;;;;;7.57;4.95;;;22.00;82.50;;;;;;4967235;28;20116;-86
2023/06/24 10:45:11;;;;;;;7.75;4.88;;;22.00;82.50;;;;;;4957327;28;20113;-86
2023/06/24 10:47:38;;;;;;;8.55;5.05;;;22.00;82.40;;;;;;4971902;28;20435;-86
2023/06/24 10:50:05;;;;;;;8.60;4.90;;;22.00;82.40;;;;;;4956014;28;20114;-86
2023/06/24 10:52:30;;;;;;;6.78;4.68;;;22.00;82.40;;;;;;4963815;28;20030;-86
2023/06/24 10:54:57;;;;;;;9.32;4.72;;;22.00;82.40;;;;;;4958407;28;20102;-86
2023/06/24 10:57:25;;;;;;;7.32;4.38;;;22.00;82.40;;;;;;4957528;28;20027;-85
2023/06/24 10:59:53;;;;;;;8.65;5.28;;;22.10;82.40;;;;;;4960337;28;20035;-84
2023/06/24 11:02:21;;;;;;;11.75;5.30;;;22.00;82.40;;;;;;4982203;28;20034;-85
2023/06/24 11:04:51;;;;;;;8.38;4.78;;;22.00;82.40;;;;;;4985873;28;20027;-86
2023/06/24 11:07:18;;;;;;;11.30;4.93;;;22.00;82.30;;;;;;4960280;28;20027;-86
2023/06/24 11:09:51;;;;;;;12.80;4.93;;;22.00;82.40;;;;;;4959869;28;20480;-84
2023/06/24 11:12:17;;;;;;;9.77;5.05;;;22.00;82.40;;;;;;4966609;28;20453;-84
2023/06/24 11:14:43;;;;;;;10.40;4.93;;;22.00;82.50;;;;;;4981567;28;20019;-84
2023/06/24 11:17:09;;;;;;;9.20;4.65;;;22.00;82.60;;;;;;4976802;28;20085;-83
2023/06/24 11:19:38;;;;;;;9.38;5.03;;;22.00;82.70;;;;;;4959900;28;20022;-84
2023/06/24 11:22:04;;;;;;;16.50;5.43;;;22.00;82.60;;;;;;4964071;28;20066;-84
2023/06/24 11:24:30;;;;;;;53.75;8.57;;;22.00;82.40;;;;;;4982768;28;20491;-83
2023/06/24 11:26:56;;;;;;;27.13;6.72;;;21.90;82.50;;;;;;4977377;28;20023;-84
2023/06/24 11:29:22;;;;;;;27.40;7.10;;;21.90;82.10;;;;;;4959577;28;20027;-84
2023/06/24 11:31:49;;;;;;;29.00;7.88;;;21.90;81.40;;;;;;4981616;28;20035;-83
2023/06/24 11:34:15;;;;;;;18.27;6.38;;;21.90;81.50;;;;;;4959543;28;20357;-83
2023/06/24 11:36:40;;;;;;;15.70;6.22;;;21.90;81.60;;;;;;4976354;28;20050;-83
2023/06/24 11:39:06;;;;;;;13.50;6.82;;;21.90;81.30;;;;;;4958999;28;20472;-84
2023/06/24 11:41:31;;;;;;;16.50;6.93;;;21.90;81.40;;;;;;4960869;28;20411;-83
2023/06/24 11:44:00;;;;;;;10.48;6.18;;;21.90;81.50;;;;;;4968171;28;20113;-83
2023/06/24 11:46:33;;;;;;;9.63;6.75;;;21.90;81.50;;;;;;4995618;28;20444;-83
2023/06/24 11:49:09;;;;;;;10.32;6.80;;;21.90;81.40;;;;;;4995668;28;20566;-84
2023/06/24 11:51:36;;;;;;;11.35;7.22;;;21.80;81.30;;;;;;4973676;28;20037;-83
2023/06/24 11:54:03;;;;;;;10.80;6.80;;;21.90;81.10;;;;;;4985757;28;20027;-84
2023/06/24 11:56:39;;;;;;;9.68;6.57;;;21.80;81.10;;;;;;4958607;28;20451;-85
2023/06/24 11:59:19;;;;;;;8.88;6.57;;;21.80;81.10;;;;;;4958906;28;20027;-84
2023/06/24 12:01:56;;;;;;;11.70;7.20;;;21.80;81.00;;;;;;4957691;28;20493;-84
2023/06/24 12:04:28;;;;;;;11.60;6.60;;;21.80;81.10;;;;;;4963313;28;20109;-84
2023/06/24 12:06:54;;;;;;;9.30;6.65;;;21.80;81.00;;;;;;4970050;28;20082;-85
2023/06/24 12:09:19;;;;;;;8.48;6.30;;;21.90;81.20;;;;;;4957487;28;20035;-85
2023/06/24 12:11:45;;;;;;;10.90;7.03;;;21.80;81.10;;;;;;4975215;28;20031;-85
2023/06/24 12:14:11;;;;;;;11.75;6.65;;;21.80;81.30;;;;;;4975630;28;20105;-84
2023/06/24 12:16:37;;;;;;;9.40;6.22;;;21.90;81.40;;;;;;4958029;28;20505;-85
2023/06/24 12:19:03;;;;;;;8.88;6.50;;;21.80;81.40;;;;;;4958388;28;20089;-85
2023/06/24 12:21:28;;;;;;;9.43;6.90;;;21.80;81.60;;;;;;4956260;28;20114;-85
2023/06/24 12:23:54;;;;;;;9.40;6.60;;;21.80;81.70;;;;;;4964032;28;20113;-84
2023/06/24 12:26:19;;;;;;;10.35;6.32;;;21.70;81.80;;;;;;4957942;28;20019;-84
2023/06/24 12:28:45;;;;;;;9.52;6.25;;;21.70;81.90;;;;;;4958457;28;20027;-85
2023/06/24 12:31:11;;;;;;;9.52;6.75;;;21.70;81.80;;;;;;4958914;28;20453;-85
2023/06/24 12:33:37;;;;;;;9.07;6.15;;;21.80;82.00;;;;;;4968700;28;20033;-85
2023/06/24 12:36:02;;;;;;;8.57;6.47;;;21.70;81.90;;;;;;4995601;28;20395;-84
2023/06/24 12:38:28;;;;;;;9.85;6.80;;;21.80;82.00;;;;;;4977088;28;20027;-84
2023/06/24 12:40:53;;;;;;;8.77;6.57;;;21.80;82.00;;;;;;4976624;28;20054;-84
2023/06/24 12:43:19;;;;;;;7.97;6.07;;;21.80;82.10;;;;;;4968512;28;20023;-85
2023/06/24 12:45:44;;;;;;;8.52;6.07;;;21.80;82.20;;;;;;4957879;28;20045;-84
2023/06/24 12:48:11;;;;;;;8.50;6.20;;;21.80;82.30;;;;;;4972939;28;20472;-85
2023/06/24 12:50:37;;;;;;;8.55;6.38;;;21.80;82.10;;;;;;4957824;28;20037;-85
2023/06/24 12:53:05;;;;;;;11.10;6.63;;;21.80;82.10;;;;;;4985471;28;20034;-84
2023/06/24 12:55:31;;;;;;;10.95;6.60;;;21.80;82.00;;;;;;4975401;28;20106;-80
2023/06/24 12:57:57;;;;;;;7.78;6.10;;;21.80;82.00;;;;;;4958151;28;20023;-82
2023/06/24 13:00:24;;;;;;;8.73;6.25;;;21.80;81.90;;;;;;4957705;28;20514;-82
2023/06/24 13:02:50;;;;;;;10.43;6.30;;;21.90;82.00;;;;;;4978054;28;20085;-82
2023/06/24 13:05:17;;;;;;;8.13;5.93;;;21.90;81.90;;;;;;4976644;28;20026;-83
2023/06/24 13:07:42;;;;;;;8.55;6.35;;;21.90;81.90;;;;;;4963346;28;20121;-85
2023/06/24 13:10:08;;;;;;;7.85;5.88;;;21.80;81.90;;;;;;4958663;28;20054;-83
2023/06/24 13:12:35;;;;;;;7.55;5.68;;;21.90;82.00;;;;;;4963046;28;20041;-85
2023/06/24 13:15:01;;;;;;;7.88;5.90;;;21.90;82.20;;;;;;4965265;28;20027;-85
2023/06/24 13:17:26;;;;;;;7.97;5.50;;;21.80;82.10;;;;;;4957162;28;20082;-85
2023/06/24 13:19:52;;;;;;;7.85;5.93;;;21.80;82.20;;;;;;4957190;28;20022;-85
2023/06/24 13:22:18;;;;;;;7.75;5.75;;;21.80;82.30;;;;;;4977717;28;20050;-85
2023/06/24 13:24:44;;;;;;;8.40;5.70;;;21.80;82.40;;;;;;4972051;28;20026;-85
2023/06/24 13:27:10;;;;;;;8.57;6.25;;;21.80;82.40;;;;;;4957852;28;20031;-85
2023/06/24 13:29:36;;;;;;;8.90;6.18;;;21.70;82.30;;;;;;4957181;28;20539;-85
2023/06/24 13:32:01;;;;;;;9.35;6.13;;;21.70;82.40;;;;;;4962524;28;20124;-85
2023/06/24 13:34:27;;;;;;;8.00;6.07;;;21.80;82.60;;;;;;4969249;28;20626;-82
2023/06/24 13:36:52;;;;;;;8.20;6.07;;;21.70;82.60;;;;;;4985137;28;20034;-85
2023/06/24 13:39:18;;;;;;;7.53;6.00;;;21.70;82.70;;;;;;4975099;28;20026;-86
2023/06/24 13:41:46;;;;;;;8.35;5.70;;;21.70;82.90;;;;;;4972888;28;20519;-87
2023/06/24 13:44:13;;;;;;;7.93;5.97;;;21.60;82.90;;;;;;4965510;28;20395;-86
2023/06/24 13:46:39;;;;;;;8.48;6.13;;;21.70;83.00;;;;;;4956621;28;20102;-86
2023/06/24 13:49:04;;;;;;;8.40;5.95;;;21.60;83.00;;;;;;4956672;28;20038;-86
2023/06/24 13:51:30;;;;;;;9.23;6.53;;;21.70;83.00;;;;;;4956840;28;20037;-87
2023/06/24 13:53:56;;;;;;;9.50;6.18;;;21.70;83.10;;;;;;4990825;28;20042;-87
2023/06/24 13:56:23;;;;;;;9.50;5.95;;;21.70;83.10;;;;;;4963939;28;20022;-85
2023/06/24 13:58:50;;;;;;;8.02;6.10;;;21.60;83.10;;;;;;4956629;28;20035;-85
2023/06/24 14:01:16;;;;;;;8.95;6.32;;;21.60;83.20;;;;;;4957748;28;20022;-86
2023/06/24 14:03:42;;;;;;;7.30;5.50;;;21.60;83.20;;;;;;4967021;28;20019;-86
2023/06/24 14:06:08;;;;;;;7.15;5.60;;;21.60;83.20;;;;;;4965599;28;20038;-85
2023/06/24 14:08:34;;;;;;;7.93;5.55;;;21.60;83.20;;;;;;4956345;28;20031;-86
2023/06/24 14:11:00;;;;;;;7.80;5.68;;;21.70;83.20;;;;;;4957139;28;20058;-84
2023/06/24 14:13:26;;;;;;;7.85;6.40;;;21.60;83.20;;;;;;4964634;28;20060;-85
2023/06/24 14:15:53;;;;;;;8.23;5.88;;;21.60;83.30;;;;;;4959682;28;20030;-86
2023/06/24 14:18:18;;;;;;;7.80;6.00;;;21.60;83.20;;;;;;4954209;29;20035;-84
2023/06/24 14:20:44;;;;;;;7.88;5.68;;;21.60;83.20;;;;;;4937258;29;20028;-85
2023/06/24 14:23:09;;;;;;;7.60;6.22;;;21.70;83.10;;;;;;4955307;28;20019;-84
2023/06/24 14:25:37;;;;;;;8.10;5.97;;;21.70;83.00;;;;;;4956290;28;20173;-82
2023/06/24 14:28:05;;;;;;;7.78;5.95;;;21.70;83.00;;;;;;4956231;28;20034;-86
2023/06/24 14:30:31;;;;;;;8.05;5.68;;;21.70;82.90;;;;;;4956673;28;20026;-84
2023/06/24 14:32:57;;;;;;;7.75;5.85;;;21.70;82.90;;;;;;4954881;28;20034;-84
2023/06/24 14:35:22;;;;;;;8.48;6.03;;;21.70;82.90;;;;;;4973655;28;20499;-85
2023/06/24 14:37:48;;;;;;;8.00;6.05;;;21.70;82.90;;;;;;4955976;28;20542;-85
2023/06/24 14:40:13;;;;;;;7.28;5.60;;;21.70;82.90;;;;;;4956208;28;20105;-85
2023/06/24 14:42:39;;;;;;;8.45;5.93;;;21.70;82.90;;;;;;4978676;28;20202;-85
2023/06/24 14:45:05;;;;;;;7.60;5.95;;;21.70;83.50;;;;;;4973522;28;20070;-85
2023/06/24 14:47:31;;;;;;;9.48;5.85;;;21.70;83.10;;;;;;4979620;28;20038;-85
2023/06/24 14:49:56;;;;;;;8.05;5.80;;;21.60;83.10;;;;;;4956008;28;20558;-84
2023/06/24 14:52:22;;;;;;;8.00;5.90;;;21.70;83.30;;;;;;4963831;28;20026;-85
2023/06/24 14:54:47;;;;;;;9.20;5.88;;;21.60;83.40;;;;;;4972115;28;20070;-85
2023/06/24 14:57:13;;;;;;;7.50;5.60;;;21.60;83.50;;;;;;4973055;28;20062;-85
2023/06/24 14:59:38;;;;;;;7.75;5.65;;;21.60;83.60;;;;;;4972042;28;20026;-85
2023/06/24 15:02:04;;;;;;;7.70;6.00;;;21.60;83.60;;;;;;4977724;28;20487;-85
2023/06/24 15:04:30;;;;;;;10.95;5.97;;;21.60;83.70;;;;;;4956370;28;20495;-85
2023/06/24 15:06:56;;;;;;;9.90;5.65;;;21.50;83.70;;;;;;4955847;28;20031;-85
2023/06/24 15:09:22;;;;;;;8.93;5.45;;;21.50;83.80;;;;;;4955997;28;20033;-85
2023/06/24 15:11:48;;;;;;;9.70;6.07;;;21.50;83.80;;;;;;4954413;28;20118;-85
2023/06/24 15:14:13;;;;;;;11.50;6.05;;;21.60;83.90;;;;;;4992253;28;20108;-85
2023/06/24 15:16:39;;;;;;;13.32;6.25;;;21.50;83.90;;;;;;4992286;28;20035;-85
2023/06/24 15:19:04;;;;;;;8.98;6.28;;;21.60;84.00;;;;;;4975124;28;20088;-85
2023/06/24 15:21:30;;;;;;;11.75;6.20;;;21.60;84.00;;;;;;4971326;28;20027;-85
2023/06/24 15:23:55;;;;;;;9.55;6.30;;;21.50;83.90;;;;;;4983820;28;20080;-85
2023/06/24 15:26:20;;;;;;;10.57;5.95;;;21.60;84.00;;;;;;4988668;28;20030;-84
2023/06/24 15:28:46;;;;;;;9.50;5.82;;;21.60;84.00;;;;;;4955611;28;20027;-85
2023/06/24 15:31:11;;;;;;;10.27;5.90;;;21.50;84.00;;;;;;4975751;28;20080;-85
2023/06/24 15:33:37;;;;;;;9.68;5.88;;;21.60;84.00;;;;;;4959472;28;20086;-85
2023/06/24 15:36:03;;;;;;;8.90;5.65;;;21.50;84.00;;;;;;4972795;28;20548;-86
2023/06/24 15:38:28;;;;;;;8.57;5.90;;;21.60;84.00;;;;;;4972634;28;20019;-83
2023/06/24 15:40:53;;;;;;;9.30;5.65;;;21.60;84.10;;;;;;4955308;28;20029;-84
2023/06/24 15:43:19;;;;;;;8.23;5.80;;;21.50;84.10;;;;;;4966076;28;20023;-84
2023/06/24 15:45:44;;;;;;;8.50;5.68;;;21.60;84.10;;;;;;4957276;28;20063;-84